createdAt,value
2018-10-11T00:01:09.020Z,12.50
2018-10-11T00:03:36.631Z,12.50
2018-10-11T00:06:04.974Z,12.30
2018-10-11T00:08:32.540Z,12.30
2018-10-11T00:11:00.137Z,12.30
2018-10-11T00:13:27.717Z,12.30
2018-10-11T00:15:55.836Z,12.20
2018-10-11T00:18:23.411Z,12.20
2018-10-11T00:20:50.993Z,12.10
2018-10-11T00:23:19.374Z,12.10
2018-10-11T00:25:47.717Z,12.10
2018-10-11T00:28:15.298Z,12.10
2018-10-11T00:30:42.916Z,12.10
2018-10-11T00:33:10.471Z,12.10
2018-10-11T00:35:38.055Z,12.10
2018-10-11T00:38:05.710Z,12.20
2018-10-11T00:40:33.284Z,12.10
2018-10-11T00:43:00.868Z,12.20
2018-10-11T00:45:28.479Z,12.30
2018-10-11T00:47:56.054Z,12.20
2018-10-11T00:50:23.621Z,12.20
2018-10-11T00:52:51.225Z,12.20
2018-10-11T00:55:19.569Z,12.30
2018-10-11T00:57:47.202Z,12.30
2018-10-11T01:00:14.779Z,12.30
2018-10-11T01:02:42.348Z,12.30
2018-10-11T01:05:09.963Z,12.30
2018-10-11T01:07:37.546Z,12.30
2018-10-11T01:10:05.159Z,12.40
2018-10-11T01:12:32.738Z,12.40
2018-10-11T01:15:01.079Z,12.30
2018-10-11T01:17:28.656Z,12.20
2018-10-11T01:19:56.755Z,12.20
2018-10-11T01:22:25.099Z,12.30
2018-10-11T01:24:52.680Z,12.30
2018-10-11T01:27:20.291Z,12.30
2018-10-11T01:29:47.934Z,12.30
2018-10-11T01:32:15.439Z,12.20
2018-10-11T01:34:43.043Z,12.20
2018-10-11T01:37:10.631Z,12.20
2018-10-11T01:39:38.350Z,12.10
2018-10-11T01:42:05.919Z,12.10
2018-10-11T01:44:34.264Z,12.10
2018-10-11T01:47:01.871Z,12.10
2018-10-11T01:49:29.449Z,12.10
2018-10-11T01:51:57.021Z,12.10
2018-10-11T01:54:24.618Z,12.00
2018-10-11T01:56:52.253Z,12.00
2018-10-11T01:59:20.263Z,12.00
2018-10-11T02:01:47.843Z,12.20
2018-10-11T02:04:16.196Z,12.20
2018-10-11T02:06:43.799Z,12.10
2018-10-11T02:09:12.139Z,12.10
2018-10-11T02:11:39.711Z,12.10
2018-10-11T02:14:07.306Z,12.10
2018-10-11T02:16:34.888Z,12.00
2018-10-11T02:19:03.202Z,12.00
2018-10-11T02:21:30.778Z,12.00
2018-10-11T02:23:58.360Z,11.90
2018-10-11T02:26:26.742Z,11.80
2018-10-11T02:28:55.077Z,11.80
2018-10-11T02:31:22.652Z,11.80
2018-10-11T02:33:50.267Z,11.80
2018-10-11T02:36:17.855Z,11.80
2018-10-11T02:38:45.434Z,11.90
2018-10-11T02:41:13.065Z,11.90
2018-10-11T02:43:40.643Z,11.90
2018-10-11T02:46:08.230Z,11.90
2018-10-11T02:48:35.840Z,11.90
2018-10-11T02:51:03.424Z,11.90
2018-10-11T02:53:31.034Z,11.90
2018-10-11T02:55:59.394Z,11.90
2018-10-11T02:58:54.074Z,11.90
2018-10-11T03:01:21.652Z,11.90
2018-10-11T03:03:49.230Z,11.90
2018-10-11T03:06:17.601Z,12.00
2018-10-11T03:08:45.188Z,11.90
2018-10-11T03:11:12.804Z,12.00
2018-10-11T03:13:40.388Z,12.00
2018-10-11T03:16:07.962Z,12.00
2018-10-11T03:18:35.586Z,12.00
2018-10-11T03:21:03.155Z,12.00
2018-10-11T03:23:30.727Z,12.00
2018-10-11T03:25:58.361Z,12.10
2018-10-11T03:28:25.908Z,12.10
2018-10-11T03:30:53.558Z,12.00
2018-10-11T03:33:21.133Z,12.00
2018-10-11T03:35:48.701Z,11.90
2018-10-11T03:38:16.297Z,11.90
2018-10-11T03:40:43.876Z,11.90
2018-10-11T03:43:13.346Z,11.80
2018-10-11T03:45:40.928Z,11.80
2018-10-11T03:48:08.867Z,11.90
2018-10-11T03:50:36.480Z,11.90
2018-10-11T03:53:04.823Z,11.80
2018-10-11T03:55:32.395Z,11.80
2018-10-11T03:58:00.007Z,11.80
2018-10-11T04:00:27.580Z,11.90
2018-10-11T04:02:55.162Z,11.90
2018-10-11T04:05:22.776Z,11.90
2018-10-11T04:07:51.112Z,11.80
2018-10-11T04:10:18.769Z,11.80
2018-10-11T04:12:46.346Z,11.80
2018-10-11T04:15:13.922Z,11.90
2018-10-11T04:17:42.306Z,11.90
2018-10-11T04:20:09.877Z,11.90
2018-10-11T04:22:37.452Z,11.90
2018-10-11T04:25:05.067Z,11.90
2018-10-11T04:27:32.638Z,11.90
2018-10-11T04:30:00.302Z,11.90
2018-10-11T04:32:27.865Z,11.90
2018-10-11T04:34:55.453Z,11.90
2018-10-11T04:37:23.844Z,12.10
2018-10-11T04:39:51.383Z,12.10
2018-10-11T04:42:19.783Z,12.10
2018-10-11T04:44:47.357Z,12.00
2018-10-11T04:47:14.937Z,12.00
2018-10-11T04:49:42.573Z,12.00
2018-10-11T04:52:10.140Z,12.00
2018-10-11T04:54:37.716Z,12.00
2018-10-11T04:57:05.398Z,11.90
2018-10-11T04:59:32.985Z,11.90
2018-10-11T05:02:00.611Z,12.00
2018-10-11T05:04:28.225Z,11.90
2018-10-11T05:06:56.928Z,12.00
2018-10-11T05:09:24.495Z,12.00
2018-10-11T05:11:52.525Z,12.00
2018-10-11T05:14:20.106Z,12.00
2018-10-11T05:16:52.305Z,12.10
2018-10-11T05:19:20.431Z,12.10
2018-10-11T05:21:48.004Z,12.10
2018-10-11T05:24:15.572Z,12.10
2018-10-11T05:26:43.984Z,12.00
2018-10-11T05:29:11.571Z,12.00
2018-10-11T05:31:39.146Z,12.00
2018-10-11T05:34:06.756Z,11.90
2018-10-11T05:36:34.324Z,11.80
2018-10-11T05:39:01.975Z,11.80
2018-10-11T05:41:29.556Z,11.70
2018-10-11T05:43:57.134Z,11.60
2018-10-11T05:46:25.681Z,11.60
2018-10-11T05:48:53.251Z,11.50
2018-10-11T05:51:20.821Z,11.50
2018-10-11T05:53:48.849Z,11.50
2018-10-11T05:56:16.425Z,11.50
2018-10-11T05:58:44.018Z,11.50
2018-10-11T06:01:11.675Z,11.50
2018-10-11T06:03:39.272Z,11.50
2018-10-11T06:06:06.862Z,11.50
2018-10-11T06:08:34.437Z,11.60
2018-10-11T06:11:02.015Z,11.60
2018-10-11T06:13:29.666Z,11.60
2018-10-11T06:15:58.008Z,11.70
2018-10-11T06:18:25.593Z,11.70
2018-10-11T06:20:54.013Z,11.80
2018-10-11T06:23:21.584Z,11.80
2018-10-11T06:25:49.166Z,11.90
2018-10-11T06:28:16.824Z,11.90
2018-10-11T06:30:44.402Z,11.90
2018-10-11T06:33:11.980Z,11.90
2018-10-11T06:35:39.631Z,11.90
2018-10-11T06:38:07.181Z,12.10
2018-10-11T06:40:34.754Z,12.10
2018-10-11T06:43:02.378Z,12.20
2018-10-11T06:45:29.961Z,12.20
2018-10-11T06:47:57.536Z,12.40
2018-10-11T06:52:57.795Z,12.70
2018-10-11T06:55:25.367Z,12.80
2018-10-11T06:57:54.735Z,12.80
2018-10-11T07:00:22.315Z,12.80
2018-10-11T07:02:49.898Z,12.80
2018-10-11T07:05:18.294Z,12.80
2018-10-11T07:07:45.866Z,12.80
2018-10-11T07:10:13.442Z,12.80
2018-10-11T07:12:41.042Z,12.80
2018-10-11T07:15:08.624Z,12.80
2018-10-11T07:17:36.260Z,12.80
2018-10-11T07:20:03.836Z,12.80
2018-10-11T07:22:32.175Z,13.00
2018-10-11T07:24:59.873Z,13.00
2018-10-11T07:27:27.443Z,13.10
2018-10-11T07:29:55.790Z,13.10
2018-10-11T07:32:23.416Z,13.10
2018-10-11T07:34:51.033Z,13.10
2018-10-11T07:37:18.602Z,13.20
2018-10-11T07:39:46.646Z,13.20
2018-10-11T07:42:14.224Z,13.20
2018-10-11T07:44:41.802Z,13.20
2018-10-11T07:47:09.957Z,13.30
2018-10-11T07:49:37.555Z,13.40
2018-10-11T07:52:05.135Z,13.50
2018-10-11T07:54:33.253Z,13.60
2018-10-11T07:57:00.829Z,13.60
2018-10-11T07:59:28.408Z,13.60
2018-10-11T08:01:56.777Z,13.50
2018-10-11T08:04:25.126Z,13.50
2018-10-11T08:06:53.570Z,13.50
2018-10-11T08:09:21.144Z,13.50
2018-10-11T08:11:49.873Z,13.50
2018-10-11T08:14:18.555Z,13.50
2018-10-11T08:16:46.270Z,13.60
2018-10-11T08:19:13.947Z,13.60
2018-10-11T08:21:42.152Z,13.70
2018-10-11T08:24:10.434Z,13.80
2018-10-11T08:26:38.741Z,13.80
2018-10-11T08:29:06.282Z,13.80
2018-10-11T08:31:33.885Z,13.90
2018-10-11T08:34:01.536Z,13.90
2018-10-11T08:36:29.077Z,14.00
2018-10-11T08:38:56.645Z,14.10
2018-10-11T08:41:24.246Z,14.10
2018-10-11T08:43:51.841Z,14.20
2018-10-11T08:46:19.459Z,14.30
2018-10-11T08:48:47.027Z,14.40
2018-10-11T08:51:14.610Z,14.50
2018-10-11T08:53:42.362Z,14.60
2018-10-11T08:56:09.834Z,14.60
2018-10-11T08:58:37.641Z,14.70
2018-10-11T09:01:07.058Z,15.00
2018-10-11T09:03:34.726Z,15.00
2018-10-11T09:06:02.214Z,15.10
2018-10-11T09:08:29.866Z,15.20
2018-10-11T09:10:57.536Z,15.30
2018-10-11T09:13:25.027Z,15.40
2018-10-11T09:15:53.167Z,15.50
2018-10-11T09:18:20.732Z,15.60
2018-10-11T09:20:48.313Z,15.70
2018-10-11T09:23:16.430Z,15.80
2018-10-11T09:25:43.988Z,15.90
2018-10-11T09:28:11.557Z,16.00
2018-10-11T09:30:39.219Z,16.00
2018-10-11T09:33:06.754Z,16.10
2018-10-11T09:35:34.705Z,16.20
2018-10-11T09:38:02.321Z,16.20
2018-10-11T09:40:30.669Z,16.50
2018-10-11T09:42:58.269Z,16.50
2018-10-11T09:45:25.846Z,16.60
2018-10-11T09:47:53.419Z,16.60
2018-10-11T09:50:21.064Z,16.60
2018-10-11T09:52:48.638Z,16.70
2018-10-11T09:55:16.212Z,16.70
2018-10-11T09:57:43.833Z,16.80
2018-10-11T10:00:11.400Z,16.90
2018-10-11T10:02:38.972Z,17.00
2018-10-11T10:05:06.573Z,17.10
2018-10-11T10:07:34.138Z,17.20
2018-10-11T10:10:02.632Z,17.20
2018-10-11T10:12:30.900Z,17.40
2018-10-11T10:14:58.854Z,17.40
2018-10-11T10:17:26.470Z,17.50
2018-10-11T10:19:54.804Z,17.60
2018-10-11T10:22:22.369Z,17.60
2018-10-11T10:24:50.026Z,17.80
2018-10-11T10:27:18.642Z,18.00
2018-10-11T10:29:46.099Z,18.10
2018-10-11T10:32:14.872Z,18.30
2018-10-11T10:34:42.439Z,18.50
2018-10-11T10:37:10.005Z,18.60
2018-10-11T10:39:38.668Z,18.70
2018-10-11T10:42:06.270Z,18.80
2018-10-11T10:44:34.603Z,18.80
2018-10-11T10:47:02.226Z,18.80
2018-10-11T10:49:29.799Z,18.90
2018-10-11T10:51:57.372Z,19.00
2018-10-11T10:54:25.031Z,19.10
2018-10-11T10:56:52.559Z,19.10
2018-10-11T10:59:20.130Z,19.20
2018-10-11T11:01:48.560Z,19.30
2018-10-11T11:04:16.126Z,19.50
2018-10-11T11:06:43.700Z,19.60
2018-10-11T11:09:11.339Z,19.80
2018-10-11T11:11:38.908Z,20.10
2018-10-11T11:14:06.474Z,20.30
2018-10-11T11:16:34.802Z,20.30
2018-10-11T11:19:02.478Z,20.30
2018-10-11T11:21:30.280Z,20.40
2018-10-11T11:23:57.899Z,20.40
2018-10-11T11:26:25.468Z,20.40
2018-10-11T11:28:53.035Z,20.50
2018-10-11T11:31:20.669Z,20.60
2018-10-11T11:33:49.010Z,20.80
2018-10-11T11:36:16.577Z,20.80
2018-10-11T11:38:44.197Z,20.90
2018-10-11T11:41:11.772Z,20.90
2018-10-11T11:43:39.348Z,21.00
2018-10-11T11:46:06.980Z,21.10
2018-10-11T11:48:34.546Z,21.10
2018-10-11T11:51:02.121Z,21.10
2018-10-11T11:53:29.738Z,21.20
2018-10-11T11:55:58.065Z,21.20
2018-10-11T11:58:25.633Z,21.20
2018-10-11T12:00:53.264Z,21.30
2018-10-11T12:03:20.879Z,21.40
2018-10-11T12:05:48.443Z,21.40
2018-10-11T12:08:17.114Z,21.50
2018-10-11T12:10:44.702Z,21.50
2018-10-11T12:13:12.270Z,21.50
2018-10-11T12:15:40.664Z,21.60
2018-10-11T12:18:08.230Z,21.60
2018-10-11T12:20:35.802Z,21.60
2018-10-11T12:23:03.422Z,21.70
2018-10-11T12:25:30.981Z,21.70
2018-10-11T12:27:58.576Z,21.80
2018-10-11T12:30:26.967Z,22.00
2018-10-11T12:32:54.533Z,22.00
2018-10-11T12:35:22.104Z,22.20
2018-10-11T12:37:49.726Z,22.30
2018-10-11T12:40:17.286Z,22.40
2018-10-11T12:42:44.842Z,22.50
2018-10-11T12:45:13.816Z,22.70
2018-10-11T12:47:41.362Z,22.70
2018-10-11T12:50:08.994Z,22.70
2018-10-11T12:52:36.531Z,22.80
2018-10-11T12:55:04.948Z,22.80
2018-10-11T12:57:32.435Z,22.80
2018-10-11T13:00:00.087Z,22.70
2018-10-11T13:02:27.651Z,22.70
2018-10-11T13:04:55.218Z,22.70
2018-10-11T13:07:23.700Z,22.70
2018-10-11T13:09:51.272Z,22.70
2018-10-11T13:12:18.834Z,22.90
2018-10-11T13:14:46.444Z,23.00
2018-10-11T13:17:14.011Z,23.00
2018-10-11T13:19:41.569Z,23.10
2018-10-11T13:22:09.183Z,23.10
2018-10-11T13:24:40.589Z,23.10
2018-10-11T13:27:04.319Z,23.10
2018-10-11T13:29:32.694Z,23.30
2018-10-11T13:32:00.254Z,23.30
2018-10-11T13:34:27.824Z,23.30
2018-10-11T13:36:55.893Z,23.30
2018-10-11T13:39:23.473Z,23.30
2018-10-11T13:41:51.109Z,23.30
2018-10-11T13:44:19.068Z,23.30
2018-10-11T13:46:46.625Z,23.30
2018-10-11T13:49:14.179Z,23.30
2018-10-11T13:51:42.361Z,23.30
2018-10-11T13:54:09.923Z,23.30
2018-10-11T13:56:37.479Z,23.40
2018-10-11T13:59:08.646Z,23.40
2018-10-11T14:01:33.113Z,23.50
2018-10-11T14:04:00.681Z,23.50
2018-10-11T14:06:29.342Z,23.60
2018-10-11T14:08:56.901Z,23.60
2018-10-11T14:11:24.465Z,23.60
2018-10-11T14:13:52.558Z,23.60
2018-10-11T14:16:20.119Z,23.60
2018-10-11T14:18:47.685Z,23.50
2018-10-11T14:21:15.997Z,23.70
2018-10-11T14:23:44.385Z,23.70
2018-10-11T14:26:11.900Z,23.70
2018-10-11T14:28:39.530Z,23.70
2018-10-11T14:31:07.088Z,23.60
2018-10-11T14:33:34.652Z,23.70
2018-10-11T14:36:02.337Z,23.70
2018-10-11T14:38:29.903Z,23.60
2018-10-11T14:40:57.466Z,23.70
2018-10-11T14:43:25.125Z,23.70
2018-10-11T14:45:53.404Z,23.80
2018-10-11T14:48:20.964Z,23.80
2018-10-11T14:50:48.611Z,23.80
2018-10-11T14:53:16.932Z,23.90
2018-10-11T14:55:44.466Z,23.90
2018-10-11T14:58:12.103Z,23.90
2018-10-11T15:00:39.660Z,23.90
2018-10-11T15:03:07.281Z,23.80
2018-10-11T15:05:34.930Z,23.80
2018-10-11T15:08:02.412Z,23.80
2018-10-11T15:10:30.763Z,23.80
2018-10-11T15:12:58.362Z,23.80
2018-10-11T15:15:25.920Z,23.80
2018-10-11T15:17:54.318Z,23.90
2018-10-11T15:20:21.905Z,23.80
2018-10-11T15:22:49.470Z,23.90
2018-10-11T15:25:17.035Z,24.00
2018-10-11T15:27:44.652Z,24.00
2018-10-11T15:30:13.284Z,24.10
2018-10-11T15:32:40.846Z,24.00
2018-10-11T15:35:08.486Z,24.20
2018-10-11T15:37:36.776Z,24.20
2018-10-11T15:40:04.376Z,24.20
2018-10-11T15:42:32.538Z,24.20
2018-10-11T15:45:00.131Z,24.20
2018-10-11T15:47:27.661Z,24.20
2018-10-11T15:49:55.276Z,24.20
2018-10-11T15:52:22.876Z,24.30
2018-10-11T15:54:50.426Z,24.30
2018-10-11T15:57:18.075Z,24.30
2018-10-11T15:59:45.635Z,24.30
2018-10-11T16:02:13.194Z,24.30
2018-10-11T16:04:40.800Z,24.40
2018-10-11T16:07:08.363Z,24.30
2018-10-11T16:09:35.929Z,24.30
2018-10-11T16:12:04.200Z,24.10
2018-10-11T16:14:31.646Z,24.00
2018-10-11T16:16:59.213Z,23.80
2018-10-11T16:19:26.817Z,23.80
2018-10-11T16:21:54.379Z,23.70
2018-10-11T16:24:21.936Z,23.50
2018-10-11T16:26:50.873Z,23.10
2018-10-11T16:29:18.438Z,23.10
2018-10-11T16:31:46.060Z,22.90
2018-10-11T16:34:14.814Z,22.80
2018-10-11T16:36:42.366Z,22.70
2018-10-11T16:39:09.976Z,22.50
2018-10-11T16:41:38.025Z,22.40
2018-10-11T16:44:06.346Z,22.40
2018-10-11T16:46:33.907Z,22.40
2018-10-11T16:49:01.894Z,22.30
2018-10-11T16:51:29.470Z,22.20
2018-10-11T16:53:57.041Z,22.10
2018-10-11T16:56:25.403Z,22.00
2018-10-11T16:58:52.958Z,21.80
2018-10-11T17:01:20.524Z,21.90
2018-10-11T17:03:48.137Z,21.80
2018-10-11T17:06:16.475Z,21.60
2018-10-11T17:08:44.032Z,21.60
2018-10-11T17:11:12.826Z,21.50
2018-10-11T17:13:44.572Z,21.60
2018-10-11T17:16:10.606Z,21.50
2018-10-11T17:18:38.676Z,21.40
2018-10-11T17:21:06.242Z,21.20
2018-10-11T17:23:33.825Z,21.10
2018-10-11T17:26:01.986Z,21.00
2018-10-11T17:28:29.544Z,20.90
2018-10-11T17:30:57.118Z,20.80
2018-10-11T17:33:24.751Z,20.80
2018-10-11T17:35:52.325Z,20.70
2018-10-11T17:38:19.890Z,20.60
2018-10-11T17:40:47.530Z,20.50
2018-10-11T17:43:15.095Z,20.50
2018-10-11T17:45:42.661Z,20.50
2018-10-11T17:48:10.628Z,20.40
2018-10-11T17:50:38.193Z,20.40
2018-10-11T17:53:05.751Z,20.30
2018-10-11T17:55:33.374Z,20.20
2018-10-11T17:58:00.940Z,20.10
2018-10-11T18:00:28.502Z,20.10
2018-10-11T18:02:56.113Z,20.00
2018-10-11T18:05:23.669Z,19.90
2018-10-11T18:07:51.258Z,19.90
2018-10-11T18:10:18.882Z,19.80
2018-10-11T18:12:46.446Z,19.90
2018-10-11T18:15:14.011Z,19.80
2018-10-11T18:17:41.976Z,19.70
2018-10-11T18:20:09.560Z,19.70
2018-10-11T18:22:37.134Z,19.60
2018-10-11T18:25:04.790Z,19.60
2018-10-11T18:27:32.354Z,19.50
2018-10-11T18:29:59.925Z,19.50
2018-10-11T18:32:28.350Z,19.50
2018-10-11T18:34:55.902Z,19.50
2018-10-11T18:37:23.469Z,19.40
2018-10-11T18:39:51.054Z,19.40
2018-10-11T18:42:18.917Z,19.30
2018-10-11T18:44:47.361Z,19.20
2018-10-11T18:47:15.669Z,19.10
2018-10-11T18:49:43.222Z,19.10
2018-10-11T18:52:10.831Z,19.10
2018-10-11T18:54:38.389Z,19.00
2018-10-11T18:57:05.947Z,19.00
2018-10-11T18:59:33.565Z,19.00
2018-10-11T19:02:01.124Z,18.90
2018-10-11T19:04:28.685Z,19.00
2018-10-11T19:06:56.683Z,19.00
2018-10-11T19:09:24.257Z,19.00
2018-10-11T19:11:51.825Z,18.90
2018-10-11T19:14:19.480Z,18.80
2018-10-11T19:16:47.037Z,18.80
2018-10-11T19:19:14.596Z,18.70
2018-10-11T19:21:43.373Z,18.70
2018-10-11T19:24:10.957Z,18.60
2018-10-11T19:26:38.517Z,18.60
2018-10-11T19:29:06.156Z,18.50
2018-10-11T19:31:33.726Z,18.40
2018-10-11T19:34:01.278Z,18.40
2018-10-11T19:36:28.941Z,18.30
2018-10-11T19:38:56.923Z,18.20
2018-10-11T19:41:24.482Z,18.10
2018-10-11T19:43:52.078Z,18.00
2018-10-11T19:46:19.647Z,17.90
2018-10-11T19:48:47.263Z,17.90
2018-10-11T19:51:14.828Z,17.80
2018-10-11T19:53:42.394Z,17.70
2018-10-11T19:56:10.058Z,17.70
2018-10-11T19:58:37.621Z,17.60
2018-10-11T20:01:05.184Z,17.60
2018-10-11T20:03:32.837Z,17.50
2018-10-11T20:06:00.451Z,17.50
2018-10-11T20:08:28.009Z,17.40
2018-10-11T20:10:55.591Z,17.40
2018-10-11T20:13:23.161Z,17.40
2018-10-11T20:15:50.722Z,17.30
2018-10-11T20:18:18.345Z,17.30
2018-10-11T20:20:45.907Z,17.30
2018-10-11T20:23:16.147Z,17.30
2018-10-11T20:25:44.530Z,17.30
2018-10-11T20:28:12.097Z,17.20
2018-10-11T20:30:39.678Z,17.30
2018-10-11T20:33:07.304Z,17.20
2018-10-11T20:35:34.862Z,17.20
2018-10-11T20:38:02.426Z,17.20
2018-10-11T20:40:31.906Z,17.20
2018-10-11T20:42:59.495Z,17.20
2018-10-11T20:45:27.848Z,17.20
2018-10-11T20:47:55.483Z,17.20
2018-10-11T20:50:23.065Z,17.20
2018-10-11T20:52:50.626Z,17.20
2018-10-11T20:55:18.789Z,17.20
2018-10-11T20:57:46.584Z,17.20
2018-10-11T21:00:14.148Z,17.30
2018-10-11T21:02:41.801Z,17.30
2018-10-11T21:05:09.379Z,17.20
2018-10-11T21:07:37.721Z,17.20
2018-10-11T21:10:05.812Z,17.20
2018-10-11T21:12:33.372Z,17.20
2018-10-11T21:15:00.944Z,17.10
2018-10-11T21:17:28.562Z,17.10
2018-10-11T21:19:56.161Z,17.10
2018-10-11T21:22:23.708Z,17.00
2018-10-11T21:24:51.365Z,17.00
2018-10-11T21:27:18.927Z,17.00
2018-10-11T21:29:46.490Z,17.10
2018-10-11T21:32:14.170Z,17.00
2018-10-11T21:34:41.739Z,17.00
2018-10-11T21:37:09.302Z,17.10
2018-10-11T21:39:36.919Z,17.10
2018-10-11T21:42:04.478Z,17.00
2018-10-11T21:44:32.042Z,16.90
2018-10-11T21:46:59.653Z,16.80
2018-10-11T21:49:27.215Z,16.80
2018-10-11T21:51:54.780Z,16.70
2018-10-11T21:54:23.177Z,16.60
2018-10-11T21:56:50.746Z,16.60
2018-10-11T21:59:18.315Z,16.60
2018-10-11T22:01:45.925Z,16.60
2018-10-11T22:04:13.495Z,16.60
2018-10-11T22:06:41.056Z,16.50
2018-10-11T22:09:08.652Z,16.50
2018-10-11T22:11:36.214Z,16.50
2018-10-11T22:14:04.636Z,16.50
2018-10-11T22:16:32.494Z,16.40
2018-10-11T22:19:00.063Z,16.40
2018-10-11T22:21:27.675Z,16.40
2018-10-11T22:23:56.008Z,16.30
2018-10-11T22:26:23.580Z,16.30
2018-10-11T22:28:51.174Z,16.30
2018-10-11T22:31:18.743Z,16.20
2018-10-11T22:33:46.311Z,16.40
2018-10-11T22:36:13.911Z,16.40
2018-10-11T22:38:41.487Z,16.30
2018-10-11T22:41:09.050Z,16.30
2018-10-11T22:43:36.669Z,16.30
2018-10-11T22:46:04.238Z,16.30
2018-10-11T22:48:31.812Z,16.40
2018-10-11T22:50:59.684Z,16.40
2018-10-11T22:53:27.244Z,16.40
2018-10-11T22:55:54.821Z,16.40
2018-10-11T22:58:22.845Z,16.40
2018-10-11T23:00:50.415Z,16.40
2018-10-11T23:03:17.986Z,16.40
2018-10-11T23:05:45.599Z,16.60
2018-10-11T23:08:13.162Z,16.60
2018-10-11T23:10:41.496Z,16.60
2018-10-11T23:13:09.089Z,16.60
2018-10-11T23:15:36.646Z,16.60
2018-10-11T23:18:05.106Z,16.50
2018-10-11T23:20:32.668Z,16.70
2018-10-11T23:23:00.225Z,16.70
2018-10-11T23:25:28.082Z,16.70
2018-10-11T23:27:55.662Z,16.70
2018-10-11T23:30:23.226Z,16.60
2018-10-11T23:32:50.828Z,16.60
2018-10-11T23:35:18.388Z,16.70
2018-10-11T23:37:46.707Z,16.70
2018-10-11T23:40:14.803Z,16.70
2018-10-11T23:42:42.399Z,16.70
2018-10-11T23:45:10.726Z,16.80
2018-10-11T23:47:38.335Z,16.80
2018-10-11T23:50:05.898Z,16.90
2018-10-11T23:52:34.231Z,16.80
2018-10-11T23:55:01.826Z,16.80
2018-10-11T23:57:29.384Z,16.80
2018-10-11T23:59:56.968Z,16.70
